KSIY/SIY METAR and TAF weather

Enter ICAO airport designator
Station Type Date Time Source
KSIY METAR 2022/06/27 07:53 UTC NOAA

KSIY 270753Z AUTO 03008KT 10SM CLR 21/04 A3009 RMK AO2 SLP170 T02110039 403890150 $


Station Type Date Time Source
KSIY Decoded METAR 2022/06/27 07:53 UTC NOAA

MONTAGUE SISKIYOU COUNTY, CA, United States (KSIY) 41-46N 122-28W
Jun 27, 2022 - 03:53 AM EDT / 2022.06.27 0753 UTC
Wind: from the NNE (030 degrees) at 9 MPH (8 KT):0
Visibility: 10 mile(s):0
Sky conditions: clear
Temperature: 70.0 F (21.1 C)
Dew Point: 39.0 F (3.9 C)
Relative Humidity: 32%
Pressure (altimeter): 30.09 in. Hg (1018 hPa)
ob: KSIY 270753Z AUTO 03008KT 10SM CLR 21/04 A3009 RMK AO2 SLP170 T02110039 403890150
cycle: 8

Station Type Date Time Source
KSIY TAF UTC NOAA

Error!

Example: see airport list